ADDS METAR Data INFO
IDs: Format: Raw Decoded Include TAF

Data at: 2055 UTC 24 Jun 2017

KPVW 242035Z AUTO 09009G14KT 10SM OVC031 22/15 A3023 RMK AO2 T02200150
KPVW 242015Z AUTO 07007KT 10SM OVC029 22/15 A3023 RMK AO2 T02230151
KPVW 241955Z AUTO 11006KT 10SM OVC027 22/15 A3024 RMK AO2 T02160147
KPVW 241935Z AUTO 13005KT 10SM OVC029 22/14 A3025 RMK AO2 T02150144
KPVW 241915Z AUTO 10007KT 10SM OVC027 21/14 A3026 RMK AO2 T02100143
KPVW 241855Z AUTO 14010KT 10SM OVC025 21/14 A3026 RMK AO2 T02060142
KPVW 241835Z AUTO 08005KT 10SM BKN023 BKN029 OVC060 20/14 A3026 RMK AO2 T02030139
KPVW 241815Z AUTO 11008KT 080V160 10SM SCT021 BKN029 OVC060 21/14 A3027 RMK AO2 T02130143
KPVW 241755Z AUTO 11008KT 10SM BKN019 BKN024 OVC060 19/14 A3027 RMK AO2 T01940136 10194 20141
KPVW 241735Z AUTO 11009KT 10SM BKN019 OVC026 18/13 A3028 RMK AO2 T01840133
KPVW 241715Z AUTO 10011KT 10SM SCT014 SCT021 OVC026 18/14 A3029 RMK AO2 T01800137
KPVW 241655Z AUTO 11009G14KT 7SM BKN013 BKN026 OVC050 16/14 A3029 RMK AO2 T01610139
KPVW 241635Z AUTO 11011KT 7SM -DZ BKN013 OVC050 15/13 A3030 RMK AO2 T01530134
KPVW 241615Z AUTO 11012KT 10SM OVC013 16/13 A3029 RMK AO2 T01570130
KPVW 241555Z AUTO 12008KT 10SM OVC013 16/13 A3029 RMK AO2 T01550128
KPVW 241535Z AUTO 12011KT 10SM OVC011 15/13 A3029 RMK AO2 T01530130
KPVW 241515Z AUTO 10013KT 10SM OVC011 16/13 A3028 RMK AO2 T01550130
KPVW 241455Z AUTO 08013G17KT 10SM OVC013 16/13 A3027 RMK AO2 T01560127
KPVW 241435Z AUTO 08012KT 10SM OVC013 15/12 A3027 RMK AO2 T01530122 TSNO
KPVW 241415Z AUTO 07013G17KT 10SM BKN013 BKN026 OVC047 15/12 A3026 RMK AO2 T01510118 TSNO
KPVW 241355Z AUTO 07014G21KT 10SM BKN013 BKN047 BKN060 15/12 A3025 RMK AO2 T01510118
KPVW 241335Z AUTO 08016G20KT 10SM OVC013 15/12 A3025 RMK AO2 T01460120
KPVW 241315Z AUTO 06013KT 10SM BKN009 BKN013 OVC048 14/12 A3025 RMK AO2 T01420122
KPVW 241255Z AUTO 07013KT 10SM BKN042 OVC050 14/12 A3023 RMK AO2 T01410116 TSNO
KPVW 241235Z AUTO 05015G18KT 10SM OVC040 14/12 A3022 RMK AO2 LTG DSNT NE T01420115
KPVW 241215Z AUTO 05014KT 10SM OVC038 14/12 A3021 RMK AO2 LTG DSNT N T01440115
KPVW 241155Z AUTO 07015G20KT 10SM SCT008 OVC036 14/11 A3020 RMK AO2 60009 70009 T01430112 10210 20137
KPVW 241135Z AUTO 07013G19KT 10SM OVC008 14/13 A3020 RMK AO2 T01420125
KPVW 241115Z AUTO 06019G24KT 10SM OVC008 15/13 A3020 RMK AO2 LTG DSNT E T01450128
KPVW 241055Z AUTO 07014KT 10SM BKN010 OVC036 15/13 A3020 RMK AO2 LTG DSNT N THRU E T01480131
KPVW 241035Z AUTO 05017G23KT 10SM OVC036 15/13 A3019 RMK AO2 LTG DSNT N AND NE T01500125
KPVW 241015Z AUTO 05009G18KT 10SM BKN036 OVC043 15/12 A3019 RMK AO2 LTG DSNT NE AND E T01520122
KPVW 240955Z AUTO 05013G17KT 10SM VCTS OVC036 14/12 A3018 RMK AO2 LTG DSNT NE AND E T01410120
KPVW 240935Z AUTO 06016KT 10SM OVC036 14/12 A3018 RMK AO2 LTG DSNT NE T01400123
KPVW 240915Z AUTO 05016G22KT 10SM OVC036 14/13 A3018 RMK AO2 LTG DSNT NE AND E T01400126
KPVW 240855Z AUTO 07020G23KT 10SM BKN034 OVC042 14/12 A3018 RMK AO2 LTG DSNT NE P0009 60009 T01380119
KPVW 240835Z AUTO 05020G23KT 10SM -VCTSRA OVC032 14/11 A3017 RMK AO2 LTG DSNT NE AND E P0009 T01410114
KPVW 240815Z AUTO 05018G23KT 10SM OVC032 20/09 A3016 RMK AO2 LTG DSNT E P0002 T01950092
KPVW 240755Z AUTO 04017G21KT 10SM SCT033 OVC041 20/09 A3016 RMK AO2 LTG DSNT W T01990089
KPVW 240735Z AUTO 04017KT 10SM SCT032 SCT038 OVC045 20/10 A3015 RMK AO2 LTG DSNT E AND W T02010095
KPVW 240715Z AUTO 04013KT 10SM BKN033 OVC045 20/10 A3017 RMK AO2 T02020097
KPVW 240655Z AUTO 05015G20KT 10SM OVC035 20/10 A3016 RMK AO2 LTG DSNT NE T02020095
KPVW 240635Z AUTO 05016G20KT 10SM OVC035 21/10 A3016 RMK AO2 T02050100
KPVW 240615Z AUTO 05014G18KT 10SM OVC035 21/10 A3015 RMK AO2 T02070098
KPVW 240555Z AUTO 06017G22KT 10SM OVC037 21/10 A3015 RMK AO2 T02100100 10295 20210 403250208
KPVW 240535Z AUTO 06020G25KT 10SM OVC037 22/10 A3014 RMK AO2 T02150102
KPVW 240515Z AUTO 07016G24KT 10SM OVC037 22/10 A3013 RMK AO2 T02200098
KPVW 240455Z AUTO 06015G27KT 10SM OVC039 23/10 A3013 RMK AO2 T02250098
KPVW 240435Z AUTO 05019G24KT 10SM OVC041 23/09 A3012 RMK AO2 T02330085
KPVW 240415Z AUTO 06016G24KT 10SM BKN041 24/09 A3011 RMK AO2 T02360090
KPVW 240355Z AUTO 07017G23KT 10SM CLR 24/09 A3009 RMK AO2 T02390092
KPVW 240335Z AUTO 07015G20KT 10SM CLR 25/11 A3007 RMK AO2 T02460111
KPVW 240315Z AUTO 07016G23KT 10SM CLR 25/12 A3006 RMK AO2 T02500116
KPVW 240255Z AUTO 07014KT 10SM CLR 25/12 A3005 RMK AO2 T02520123
KPVW 240235Z AUTO 06014G19KT 10SM CLR 26/13 A3004 RMK AO2 T02560132
KPVW 240215Z AUTO 06016G21KT 10SM CLR 26/15 A3003 RMK AO2 T02630154
KPVW 240155Z AUTO 07016G23KT 10SM CLR 27/17 A3002 RMK AO2 T02690165
KPVW 240135Z AUTO 07015G21KT 10SM CLR 28/17 A3002 RMK AO2 T02750168
KPVW 240115Z AUTO 07014G22KT 10SM CLR 28/17 A3000 RMK AO2 T02780168
KPVW 240055Z AUTO 08015KT 10SM CLR 28/17 A3000 RMK AO2 T02820169
KPVW 240035Z AUTO 06018G24KT 10SM SCT050 29/17 A3000 RMK AO2 T02870167
KPVW 240015Z AUTO 07016G22KT 10SM SCT050 29/17 A3000 RMK AO2 T02900165
KPVW 232355Z AUTO 06018G25KT 10SM CLR 30/17 A2999 RMK AO2 T02960166 10319 20295
KPVW 232335Z AUTO 07018G27KT 10SM CLR 30/17 A2997 RMK AO2 T03040165
KPVW 232315Z AUTO 06020G23KT 10SM CLR 31/17 A2997 RMK AO2 T03100165
KPVW 232255Z AUTO 07018G25KT 10SM CLR 31/16 A2998 RMK AO2 T03110163
KPVW 232235Z AUTO 05019G23KT 10SM CLR 31/16 A2997 RMK AO2 T03120163
KPVW 232215Z AUTO 05017G24KT 10SM CLR 31/16 A2997 RMK AO2 T03130159
KPVW 232155Z AUTO 07017G23KT 10SM CLR 31/16 A2997 RMK AO2 T03140155
KPVW 232135Z AUTO 06019G24KT 10SM CLR 31/16 A2998 RMK AO2 T03130155
KPVW 232115Z AUTO 06016G23KT 10SM CLR 31/16 A2999 RMK AO2 T03120155
KPVW 232055Z AUTO 06018G24KT 10SM CLR 31/16 A2999 RMK AO2 T03070155
KPVW 232035Z AUTO 07019G26KT 10SM SCT060 31/16 A3000 RMK AO2 T03120156
KPVW 232015Z AUTO 07013G23KT 10SM SCT050 31/15 A3000 RMK AO2 T03100154
KPVW 231955Z AUTO 06014G22KT 10SM SCT050 31/16 A3001 RMK AO2 T03090157
KPVW 231935Z AUTO 07016G26KT 10SM CLR 31/16 A3000 RMK AO2 T03080156
KPVW 231915Z AUTO 04019G23KT 10SM CLR 31/16 A3000 RMK AO2 T03080156
KPVW 231855Z AUTO 05014G25KT 10SM CLR 30/15 A3000 RMK AO2 T03020150
KPVW 231835Z AUTO 06019G22KT 10SM CLR 30/15 A2999 RMK AO2 T03040151
KPVW 231815Z AUTO 06015G21KT 10SM CLR 31/15 A2999 RMK AO2 T03100151
KPVW 231755Z AUTO 05018G24KT 10SM CLR 31/15 A2999 RMK AO2 T03100152 10325 20208
KPVW 231735Z AUTO 05016G26KT 10SM CLR 31/14 A2998 RMK AO2 T03130140
KPVW 231715Z AUTO 05015G18KT 10SM CLR 32/15 A2997 RMK AO2 T03240146
KPVW 231655Z AUTO 04016G23KT 10SM CLR 32/15 A2995 RMK AO2 T03210151
KPVW 231635Z AUTO 03009KT 10SM CLR 31/15 A2994 RMK AO2 T03100148
KPVW 231615Z AUTO 06009G16KT 10SM CLR 31/16 A2994 RMK AO2 T03060155
KPVW 231555Z AUTO 06009KT 10SM CLR 30/15 A2993 RMK AO2 T03010154
KPVW 231535Z AUTO 06005KT 10SM CLR 29/15 A2992 RMK AO2 T02870152
KPVW 231515Z AUTO 23003KT 10SM CLR 28/16 A2990 RMK AO2 T02800157
KPVW 231455Z AUTO 14003KT 10SM CLR 27/15 A2990 RMK AO2 T02710153
KPVW 231435Z AUTO 09008KT 10SM CLR 27/15 A2988 RMK AO2 T02710151
KPVW 231415Z AUTO 07009KT 10SM CLR 26/15 A2988 RMK AO2 LTG DSNT NE T02610148
KPVW 231355Z AUTO 06011KT 10SM CLR 25/15 A2988 RMK AO2 T02510148
KPVW 231335Z AUTO 06011KT 10SM CLR 24/15 A2987 RMK AO2 T02350147
KPVW 231315Z AUTO 06010KT 10SM CLR 22/15 A2988 RMK AO2 T02240146
KPVW 231255Z AUTO 07010KT 10SM CLR 22/15 A2989 RMK AO2 T02150146
KPVW 231235Z AUTO 07010KT 10SM CLR 21/15 A2989 RMK AO2 T02100145
KPVW 231215Z AUTO 04009KT 10SM CLR 21/14 A2989 RMK AO2 T02140142
KPVW 231155Z AUTO 05008KT 10SM CLR 22/14 A2988 RMK AO2 70003 T02150140 10282 20209
KPVW 231135Z AUTO 05008KT 10SM CLR 22/14 A2988 RMK AO2 T02200141
KPVW 231115Z AUTO 36009G14KT 10SM CLR 22/14 A2986 RMK AO2 T02150143
KPVW 231055Z AUTO 22007KT 10SM CLR 21/15 A2984 RMK AO2 LTG DSNT N T02120148
KPVW 231035Z AUTO 14009KT 10SM CLR 22/15 A2982 RMK AO2 T02220146
KPVW 231015Z AUTO 11008KT 10SM CLR 22/14 A2983 RMK AO2 T02210143
KPVW 230955Z AUTO 07007KT 10SM CLR 23/15 A2984 RMK AO2 T02280145
KPVW 230935Z AUTO 06010KT 10SM CLR 24/14 A2984 RMK AO2 T02350142
KPVW 230915Z AUTO 06009KT 10SM CLR 24/14 A2984 RMK AO2 T02420140


Page loaded:  20:55 UTC  |   01:55 PM Pacific  |   02:55 PM Mountain  |   03:55 PM Central  |   04:55 PM Eastern

 

ADVISORIES

FORECASTS

FORECASTS

OBSERVATIONS

USER TOOLS

ABOUT US